AirNav   Everest Fuels
 
 1218 users online  

22FD Destin Emergency Care Center Heliport
Destin, Florida, USA

GOING TO DESTIN?


FAA INFORMATION EFFECTIVE 21 MAY 2020

Location

FAA Identifier: 22FD
Lat/Long: 30-23-38.0000N 086-28-17.0000W
30-23.633333N 086-28.283333W
30.3938889,-86.4713889
(estimated)
Elevation: 13 ft. / 4 m (estimated)
Time zone: UTC -5 (UTC -6 during Standard Time)
Zip code: 32541

Heliport Operations

Heliport use: Private use, MEDICAL USE.
Activation date: 01/2007
Control tower: no
ARTCC: JACKSONVILLE CENTER
FSS: GAINESVILLE FLIGHT SERVICE STATION
Attendance: CONTINUOUS
Wind indicator: lighted
Segmented circle: no
Lights: SS-SR
Beacon: white-green-yellow (heliport)

Heliport Communications

WX ASOS at DTS (0.4 nm N): PHONE 850-654-7128

Nearby radio navigation aids

VOR radial/distance  VOR name  Freq  Var
CEWr155/28.1CRESTVIEW VORTAC115.9003E

 
NDB name  Hdg/Dist  Freq  Var  ID
LYNNE280/35.927804WPFN .--. ..-. -.
PICKENS096/36.732602WPKZ .--. -.- --..

Heliport Services

Runway Information

Helipad H1

Dimensions: 20 x 20 ft. / 6 x 6 m
Surface: concrete
Latitude: 30-23.633333N
Longitude: 086-28.283333W
Elevation: 13.0 ft.
Traffic pattern: leftleft

Heliport Ownership and Management from official FAA records

Ownership: Privately-owned
Owner: FT WALTON BEACH MEDICAL CENTER
1000 MAR WALT DRIVE
FT WALTON BEACH, FL 32547
Phone 850-862-1111
DESTIN EMERGENCY CARE CENTER IS LCTD AT 496 AIRPORT ROAD, DESTIN FL 32541.
Manager: ROBERT SETTLES
1000 MAR WALT DRIVE
FT WALTON BEACH, FL 32547
Phone 850-863-7540
FACILITIES SERVICE MANAGER TIM ANDERSON 996 AIRPORT RD DESTIN, FL 32541 850-635-9068

Additional Remarks

ALL DEPT HELOS CTC EGLIN CLNC DLVY ON 121.6 OR 122.7
FOR CD CTC EGLIN APCH 850-882-9152 OR 850-882-9151.

Instrument Procedures

There are no published instrument procedures at 22FD.

Some nearby airports with instrument procedures:

KDTS - Destin Executive Airport (0 nm N)
KVPS - Eglin Air Force Base/Destin-Fort Walton Beach Airport (6 nm NW)
KHRT - Hurlburt Field Airport (11 nm W)
KEGI - Duke Field (Eglin AF Aux Nr 3) Airport (16 nm N)
KCEW - Bob Sikes Airport (23 nm N)
 
Loc | Ops | Rwys | IFR | FBO | Links
Com | Nav | Svcs | Stats | Notes

Continental Services
AirBoss

 
Aerial photo
No photo
 
Sectional chart

 
Airport distance calculator
Flying to Destin Emergency Care Center Heliport? Find the distance to fly.

From to 22FD

Sunrise and sunset
Times for 01-Jun-2020
 Local
(UTC-5)
 Zulu
(UTC)
Morning civil twilight05:1810:18
Sunrise05:4510:45
Sunset19:4300:43
Evening civil twilight20:1001:10

Current date and time
Zulu (UTC)  01-Jun-2020 21:34:22
Local (UTC-5)  01-Jun-2020 16:34:22
 
METAR
KDTS 012053Z 18007KT 10SM CLR 32/19 A3005 RMK AO2 SLP174 T03170189 58013
KVPS 
5nm NW 
012056Z AUTO 18007KT 10SM FEW130 FEW200 32/15 A3005 RMK AO2 DZB1957E06 SLP182 P0000 60000 T03190154 57011 $
KHRT 
10nm W 
012056Z 20009KT 10SM FEW210 32/17 A3005 RMK AO2A SLP177 T03230165 57009 $
KEGI 
15nm N 
012056Z AUTO 12006KT 10SM FEW070 32/17 A3005 RMK AO2 SLP175 T03240170 57012 $
TAF
KVPS 
5nm NW 
011700Z 0117/0223 16012KT 9999 FEW040 SCT120 BKN250 QNH3000INS BECMG 0123/0124 09006KT 9999 SCT025 BKN120 BKN250 QNH3004INS BECMG 0206/0207 10006KT 9999 VCSH SCT010 BKN020 BKN120 BKN250 QNH3008INS BECMG 0214/0215 12012KT 9999 NSW SCT020 BKN180 BKN250 QNH3002INS BECMG 0218/0219 17010G15KT 9999 VCSH SCT025 BKN180 BKN250 QNH3000INS BECMG 0222/0223 13012KT 9999 NSW FEW025 BKN180 BKN250 QNH3005INS TX33/0120Z TN21/0211Z
KHRT 
10nm W 
011600Z 0116/0216 11007KT 9999 SCT210 QNH3002INS BECMG 0121/0122 11004KT 9999 SCT060 SCT180 QNH3006INS BECMG 0204/0205 09008KT 9999 BKN050 BKN120 QNH3009INS BECMG 0211/0212 10010G15KT 6000 SHRA BKN030 OVC120 QNH3012INS TX34/0120Z TN22/0209Z
KEGI 
15nm N 
011700Z 0117/0223 10009KT 9999 SCT200 QNH3008INS BECMG 0119/0120 14009KT 9999 FEW040 SCT250 QNH3006INS BECMG 0121/0122 17009KT 9999 SCT040 BKN070 QNH3005INS BECMG 0204/0205 10009KT 9999 BKN020 BKN030 QNH3009INS BECMG 0208/0209 11009KT 9999 VCSH BKN015 BKN025 BKN250 QNH3008INS BECMG 0215/0216 12012KT 9999 NSW SCT015 BKN025 BKN250 QNH3010INS BECMG 0220/0221 16012G18KT 9999 VCTS SCT030CB BKN070 QNH3008INS TX34/0120Z TN20/0212Z
NOTAMs
Click for the latest NOTAMs
NOTAMs are issued by the DoD/FAA and will open in a separate window not controlled by AirNav.

 

 
 

Would you like to see your business listed on this page?

 If your business provides an interesting product or service to pilots, flight crews, aircraft, or users of the Destin Emergency Care Center Heliport, you should consider listing it here.  To start the listing process, click on the button below
 
Add a business
 

Other Pages about Destin Emergency Care Center Heliport

Update a link
 
Copyright © AirNav, LLC. All rights reserved. Privacy Policy  Contact